Have a Safe July 4th! 

Flight Track Log - Related Links

Times and Time Zones

All times are in EDT time to prevent confusion due to time zone crossing. See the N204BG flight status page for this flight to view local times or setup timezone preferences in your user account.

Time Position Orientation Groundspeed Altitude Reporting Facility
EDT Latitude Longitude Course Direction KTS MPH feet Rate Location/Type
Thu 09:10:02 AM 33.5744 -86.7514 36° Northeast 168 193 1,400  Level Atlanta Center
Thu 09:10:33 AM 33.5936 -86.7347 36° Northeast 189 217 2,600 2,243 Climbing Atlanta Center
Thu 09:11:49 AM 33.6061 -86.6453 80° East 225 259 5,400 2,338 Climbing Atlanta Center
Thu 09:12:49 AM 33.5931 -86.5625 101° East 237 273 7,900 2,300 Climbing Atlanta Center
Thu 09:13:49 AM 33.5550 -86.4842 120° Southeast 244 281 10,000 1,600 Climbing Atlanta Center
Thu 09:14:49 AM 33.5089 -86.3881 120° Southeast 274 315 11,100 1,550 Climbing Atlanta Center
Thu 09:15:49 AM 33.5108 -86.2811 89° East 292 336 13,100 2,000 Climbing Atlanta Center
Thu 09:16:49 AM 33.5189 -86.1792 85° East 298 343 15,100 1,900 Climbing Atlanta Center
Thu 09:17:49 AM 33.5250 -86.0747 86° East 298 343 16,900 950 Climbing Atlanta Center
Thu 09:18:49 AM 33.5350 -85.9578 84° East 325 374 17,000 50 Climbing Atlanta Center
Thu 09:19:49 AM 33.5433 -85.8333 85° East 351 404 17,000  Level Atlanta Center
Thu 09:20:49 AM 33.5511 -85.7164 85° East 356 410 17,000  Level Atlanta Center
Thu 09:21:49 AM 33.5569 -85.5969 87° East 361 415 17,000  Level Atlanta Center
Thu 09:22:49 AM 33.5667 -85.4797 84° East 361 415 17,000  Level Atlanta Center
Thu 09:23:49 AM 33.5742 -85.3603 86° East 361 415 17,000  Level Atlanta Center
Thu 09:24:49 AM 33.5797 -85.2406 87° East 361 415 17,000 250 Level Atlanta Center
Thu 09:25:49 AM 33.5869 -85.1261 86° East 355 409 17,500 1,000 Climbing Atlanta Center
Thu 09:26:49 AM 33.5961 -85.0264 84° East 327 376 19,000 750 Climbing Atlanta Center
Thu 09:27:49 AM 33.6011 -84.9242 87° East 316 364 19,000  Level Atlanta Center
Thu 09:28:49 AM 33.6081 -84.8094 86° East 317 365 19,000  Level Atlanta Center
Thu 09:29:49 AM 33.6150 -84.6947 86° East 322 371 19,000  Level Atlanta Center
Thu 09:30:49 AM 33.6219 -84.5875 86° East 328 377 19,000  Level Atlanta Center
Thu 09:31:49 AM 33.6222 -84.4853 90° East 328 377 19,000  Level Atlanta Center
Thu 09:32:49 AM 33.6247 -84.3731 88° East 328 377 19,000  Level Atlanta Center
Thu 09:33:49 AM 33.6250 -84.2558 90° East 333 383 19,000 -350 Level Atlanta Center
Thu 09:34:49 AM 33.6189 -84.1411 94° East 333 383 18,300 -1,000 Descending Atlanta Center
Thu 09:35:49 AM 33.6189 -84.0339 90° East 333 383 17,000 -1,400 Descending Atlanta Center
Thu 09:36:49 AM 33.6167 -83.9242 91° East 328 377 15,500 -1,550 Descending Atlanta Center
Thu 09:37:49 AM 33.6125 -83.8167 93° East 328 377 13,900 -1,750 Descending Atlanta Center
Thu 09:38:49 AM 33.6122 -83.7094 90° East 328 377 12,000 -2,150 Descending Atlanta Center
Thu 09:39:49 AM 33.6411 -83.5997 72° East 318 366 9,600 -2,150 Descending Atlanta Center
Thu 09:40:49 AM 33.6825 -83.5169 59° Northeast 297 342 7,700 -1,950 Descending Atlanta Center
Thu 09:41:49 AM 33.7114 -83.4394 66° East 270 311 5,700 -2,000 Descending Atlanta Center
Thu 09:42:49 AM 33.7194 -83.3619 83° East 243 280 3,700 -1,300 Descending Atlanta Center
Thu 09:43:49 AM 33.7314 -83.2919 78° East 229 264 3,100 -300 Descending Atlanta Center
Thu 09:44:49 AM 33.7394 -83.2244 82° East 212 244 3,100  Level Atlanta Center
Thu 09:45:49 AM 33.7472 -83.1619 81° East 199 229 3,100 -150 Level Atlanta Center
Thu 09:46:49 AM 33.7428 -83.1044 95° East 185 213 2,800 -116 Descending Atlanta Center
Thu 09:48:24 AM 33.7333 -83.0333 99° East 155 178 2,800  Level Atlanta TRACON
Thu 09:49:18 AM 33.7000 -83.0000 140° Southeast 149 171 2,800  Level Atlanta TRACON
Thu 09:50:18 AM 33.6667 -83.0167 203° Southwest 169 194 2,800 -250 Level Atlanta TRACON
Thu 09:51:18 AM 33.6333 -83.0500 220° Southwest 155 178 2,300 -500 Descending Atlanta TRACON

Login

Don't have an account? Register now (free) for customized features, flight alerts, and more!